Wetterdaten: Woche 08.06.09 - 14.06.09 (KW24)
Datum Zeit Temperatur Luftfeuchte Luftdruck Niederschlag Windrichtung Wind
08.06.2009 00:00 11,8 C 68 % 1009,0 hPa 0,0 l/m W-SW 6,7 km/h (2 Bft)
08.06.2009 01:00 11,2 C 71 % 1009,0 hPa 0,0 l/m W 7,2 km/h (2 Bft)
08.06.2009 02:00 11,3 C 74 % 1009,1 hPa 0,0 l/m SW 3,6 km/h (1 Bft)
08.06.2009 03:00 10,8 C 80 % 1009,0 hPa 0,0 l/m N 0,4 km/h (0 Bft)
08.06.2009 04:00 10,2 C 84 % 1008,9 hPa 0,0 l/m W 0,7 km/h (0 Bft)
08.06.2009 05:00 9,6 C 87 % 1009,3 hPa 0,0 l/m N 0,9 km/h (0 Bft)
08.06.2009 06:00 9,9 C 88 % 1009,5 hPa 0,0 l/m N 0,1 km/h (0 Bft)
08.06.2009 07:00 11,6 C 87 % 1009,6 hPa 0,0 l/m S-SW 2,7 km/h (1 Bft)
08.06.2009 08:00 13,5 C 84 % 1009,7 hPa 0,0 l/m SW 7,9 km/h (2 Bft)
08.06.2009 09:00 16,0 C 67 % 1009,3 hPa 0,0 l/m SW 8,7 km/h (2 Bft)
08.06.2009 10:00 17,5 C 61 % 1008,8 hPa 0,0 l/m S-SW 13,7 km/h (3 Bft)
08.06.2009 11:00 18,5 C 58 % 1008,6 hPa 0,0 l/m S 11,7 km/h (2 Bft)
08.06.2009 12:00 19,0 C 55 % 1008,3 hPa 0,0 l/m SO 11,2 km/h (2 Bft)
08.06.2009 13:00 19,6 C 54 % 1008,0 hPa 0,0 l/m W-SW 9,7 km/h (2 Bft)
08.06.2009 14:00 20,2 C 51 % 1007,5 hPa 0,0 l/m W-SW 7,5 km/h (2 Bft)
08.06.2009 15:00 20,4 C 48 % 1007,1 hPa 0,0 l/m W-SW 6,5 km/h (2 Bft)
08.06.2009 16:00 20,8 C 47 % 1006,8 hPa 0,0 l/m SO 7,1 km/h (2 Bft)
08.06.2009 17:00 20,7 C 48 % 1006,7 hPa 0,0 l/m NO 6,3 km/h (2 Bft)
08.06.2009 18:00 18,1 C 58 % 1006,9 hPa 0,0 l/m N-NO 18,1 km/h (3 Bft)
08.06.2009 19:00 17,4 C 63 % 1007,0 hPa 0,0 l/m NO 11,3 km/h (2 Bft)
08.06.2009 20:00 16,9 C 68 % 1006,9 hPa 0,0 l/m N-NO 7,8 km/h (2 Bft)
08.06.2009 21:00 16,1 C 74 % 1007,1 hPa 0,0 l/m N-NO 5,9 km/h (2 Bft)
08.06.2009 22:00 15,3 C 78 % 1007,2 hPa 0,0 l/m N 9,1 km/h (2 Bft)
08.06.2009 23:00 14,3 C 82 % 1007,4 hPa 0,0 l/m N-NO 9,5 km/h (2 Bft)
09.06.2009 00:00 14,0 C 82 % 1008,1 hPa 0,0 l/m W-NW 16,1 km/h (3 Bft)
09.06.2009 01:00 13,2 C 87 % 1007,9 hPa 0,0 l/m N-NO 7,4 km/h (2 Bft)
09.06.2009 02:00 13,1 C 88 % 1007,3 hPa 0,0 l/m SO 4,1 km/h (1 Bft)
09.06.2009 03:00 12,9 C 89 % 1007,0 hPa 0,0 l/m S-SW 4,4 km/h (1 Bft)
09.06.2009 04:00 12,7 C 91 % 1006,6 hPa 0,0 l/m W-SW 3,2 km/h (1 Bft)
09.06.2009 05:00 12,0 C 93 % 1007,1 hPa 0,0 l/m W-NW 6,5 km/h (2 Bft)
09.06.2009 06:00 12,4 C 91 % 1008,0 hPa 0,0 l/m W-NW 12,5 km/h (3 Bft)
09.06.2009 07:00 13,2 C 87 % 1008,8 hPa 0,0 l/m W-SW 16,5 km/h (3 Bft)
09.06.2009 08:00 12,6 C 89 % 1010,0 hPa 0,8 l/m W-SW 11,3 km/h (2 Bft)
09.06.2009 09:00 12,4 C 93 % 1010,5 hPa 0,4 l/m SW 9,9 km/h (2 Bft)
09.06.2009 10:00 13,2 C 93 % 1010,8 hPa 0,2 l/m S-SW 17,8 km/h (3 Bft)
09.06.2009 11:00 13,9 C 90 % 1011,1 hPa 0,2 l/m SW 15,6 km/h (3 Bft)
09.06.2009 12:00 14,3 C 87 % 1011,4 hPa 0,0 l/m SW 20,0 km/h (4 Bft)
09.06.2009 13:00 15,8 C 79 % 1011,5 hPa 0,0 l/m SW 17,2 km/h (3 Bft)
09.06.2009 14:00 17,6 C 72 % 1011,2 hPa 0,0 l/m SW 20,0 km/h (4 Bft)
09.06.2009 15:00 18,5 C 66 % 1011,0 hPa 0,0 l/m SW 19,2 km/h (3 Bft)
09.06.2009 16:00 19,2 C 65 % 1010,9 hPa 0,0 l/m SW 18,9 km/h (3 Bft)
09.06.2009 17:00 19,3 C 62 % 1010,9 hPa 0,0 l/m W-SW 15,0 km/h (3 Bft)
09.06.2009 18:00 19,1 C 59 % 1010,8 hPa 0,0 l/m W-SW 13,6 km/h (3 Bft)
09.06.2009 19:00 17,6 C 70 % 1011,2 hPa 0,0 l/m SW 7,1 km/h (2 Bft)
09.06.2009 20:00 16,3 C 73 % 1011,7 hPa 0,0 l/m W-SW 9,5 km/h (2 Bft)
09.06.2009 21:00 15,8 C 72 % 1012,5 hPa 0,0 l/m W-SW 12,9 km/h (3 Bft)
09.06.2009 22:00 14,8 C 77 % 1013,1 hPa 0,0 l/m SW 7,2 km/h (2 Bft)
09.06.2009 23:00 14,5 C 79 % 1013,6 hPa 0,0 l/m SW 19,2 km/h (3 Bft)
10.06.2009 00:00 13,9 C 83 % 1014,0 hPa 0,0 l/m SW 18,2 km/h (3 Bft)
10.06.2009 01:00 13,1 C 88 % 1014,0 hPa 0,0 l/m SW 14,9 km/h (3 Bft)
10.06.2009 02:00 12,6 C 88 % 1014,6 hPa 0,0 l/m S-SW 13,0 km/h (3 Bft)
10.06.2009 03:00 12,2 C 88 % 1015,0 hPa 0,0 l/m SW 9,0 km/h (2 Bft)
10.06.2009 04:00 11,7 C 90 % 1015,2 hPa 0,0 l/m SW 8,0 km/h (2 Bft)
10.06.2009 05:00 10,8 C 92 % 1015,4 hPa 0,0 l/m SW 4,1 km/h (1 Bft)
10.06.2009 06:00 11,0 C 93 % 1015,6 hPa 0,0 l/m SW 8,3 km/h (2 Bft)
10.06.2009 07:00 12,8 C 87 % 1015,7 hPa 0,0 l/m SW 10,1 km/h (2 Bft)
10.06.2009 08:00 14,0 C 79 % 1016,0 hPa 0,0 l/m SW 13,6 km/h (3 Bft)
10.06.2009 09:00 15,3 C 69 % 1016,3 hPa 0,0 l/m W-SW 15,7 km/h (3 Bft)
10.06.2009 10:00 16,3 C 65 % 1016,1 hPa 0,0 l/m W 16,9 km/h (3 Bft)
10.06.2009 11:00 16,9 C 64 % 1016,0 hPa 0,0 l/m W 14,1 km/h (3 Bft)
10.06.2009 12:00 18,2 C 59 % 1015,7 hPa 0,0 l/m W 17,4 km/h (3 Bft)
10.06.2009 13:00 19,9 C 51 % 1015,4 hPa 0,0 l/m SW 24,9 km/h (4 Bft)
10.06.2009 14:00 20,4 C 49 % 1015,1 hPa 0,0 l/m W 22,8 km/h (4 Bft)
10.06.2009 15:00 20,9 C 47 % 1014,7 hPa 0,0 l/m W-NW 19,4 km/h (3 Bft)
10.06.2009 16:00 21,3 C 45 % 1014,2 hPa 0,0 l/m W-SW 19,0 km/h (3 Bft)
10.06.2009 17:00 21,0 C 43 % 1013,7 hPa 0,0 l/m W 18,4 km/h (3 Bft)
10.06.2009 18:00 20,7 C 43 % 1013,3 hPa 0,0 l/m W-SW 16,6 km/h (3 Bft)
10.06.2009 19:00 20,0 C 49 % 1013,3 hPa 0,0 l/m SW 8,7 km/h (2 Bft)
10.06.2009 20:00 19,0 C 57 % 1013,1 hPa 0,0 l/m W-SW 4,3 km/h (1 Bft)
10.06.2009 21:00 17,0 C 69 % 1012,6 hPa 0,0 l/m SW 2,4 km/h (1 Bft)
10.06.2009 22:00 16,3 C 70 % 1012,5 hPa 0,0 l/m SW 5,9 km/h (2 Bft)
10.06.2009 23:00 15,8 C 73 % 1012,3 hPa 0,0 l/m S-SW 7,6 km/h (2 Bft)
11.06.2009 00:00 15,5 C 77 % 1012,1 hPa 0,0 l/m SW 6,1 km/h (2 Bft)
11.06.2009 01:00 14,7 C 83 % 1012,5 hPa 1,6 l/m W 16,2 km/h (3 Bft)
11.06.2009 02:00 13,6 C 91 % 1011,9 hPa 0,6 l/m W-SW 12,7 km/h (3 Bft)
11.06.2009 03:00 13,2 C 93 % 1012,0 hPa 2,0 l/m S-SW 13,3 km/h (3 Bft)
11.06.2009 04:00 13,0 C 95 % 1011,1 hPa 1,6 l/m SW 14,8 km/h (3 Bft)
11.06.2009 05:00 13,0 C 96 % 1010,7 hPa 0,4 l/m SW 16,1 km/h (3 Bft)
11.06.2009 06:00 13,1 C 95 % 1010,8 hPa 0,6 l/m W-SW 16,6 km/h (3 Bft)
11.06.2009 07:00 13,8 C 94 % 1011,2 hPa 2,2 l/m SW 24,1 km/h (4 Bft)
11.06.2009 08:00 15,2 C 88 % 1011,7 hPa 0,0 l/m W 31,6 km/h (5 Bft)
11.06.2009 09:00 16,6 C 73 % 1012,5 hPa 0,0 l/m W-NW 37,3 km/h (5 Bft)
11.06.2009 10:00 17,6 C 60 % 1013,3 hPa 0,0 l/m W 40,5 km/h (6 Bft)
11.06.2009 11:00 18,1 C 53 % 1014,0 hPa 0,0 l/m W 45,5 km/h (6 Bft)
11.06.2009 12:00 18,6 C 51 % 1014,4 hPa 0,0 l/m W-NW 39,7 km/h (6 Bft)
11.06.2009 13:00 18,4 C 50 % 1015,2 hPa 0,0 l/m W-NW 40,0 km/h (6 Bft)
11.06.2009 14:00 18,2 C 50 % 1015,7 hPa 0,0 l/m W-NW 32,2 km/h (5 Bft)
11.06.2009 15:00 18,6 C 50 % 1016,3 hPa 0,0 l/m W-NW 26,7 km/h (4 Bft)
11.06.2009 16:00 18,4 C 50 % 1016,7 hPa 0,0 l/m W 25,6 km/h (4 Bft)
11.06.2009 17:00 18,5 C 47 % 1016,8 hPa 0,0 l/m W 28,0 km/h (4 Bft)
11.06.2009 18:00 17,8 C 47 % 1016,8 hPa 0,0 l/m W 22,5 km/h (4 Bft)
11.06.2009 19:00 17,3 C 47 % 1017,2 hPa 0,0 l/m W-NW 21,0 km/h (4 Bft)
11.06.2009 20:00 15,9 C 52 % 1017,7 hPa 0,0 l/m W-NW 14,8 km/h (3 Bft)
11.06.2009 21:00 14,1 C 59 % 1018,4 hPa 0,0 l/m W-SW 6,9 km/h (2 Bft)
11.06.2009 22:00 12,5 C 66 % 1019,1 hPa 0,0 l/m W 6,8 km/h (2 Bft)
11.06.2009 23:00 11,6 C 71 % 1019,6 hPa 0,0 l/m W-SW 5,7 km/h (1 Bft)
12.06.2009 00:00 10,5 C 77 % 1019,8 hPa 0,0 l/m W-SW 5,5 km/h (1 Bft)
12.06.2009 01:00 10,5 C 77 % 1020,1 hPa 0,0 l/m W-SW 5,6 km/h (1 Bft)
12.06.2009 02:00 10,1 C 79 % 1020,5 hPa 0,0 l/m W-SW 5,2 km/h (1 Bft)
12.06.2009 03:00 8,6 C 86 % 1020,7 hPa 0,0 l/m N 1,3 km/h (1 Bft)
12.06.2009 04:00 7,5 C 91 % 1020,8 hPa 0,0 l/m N 0,9 km/h (0 Bft)
12.06.2009 05:00 7,0 C 92 % 1020,9 hPa 0,0 l/m N 1,1 km/h (0 Bft)
12.06.2009 06:00 8,0 C 90 % 1021,1 hPa 0,0 l/m W-SW 3,2 km/h (1 Bft)
12.06.2009 07:00 11,5 C 76 % 1021,2 hPa 0,0 l/m W-SW 11,9 km/h (2 Bft)
12.06.2009 08:00 13,5 C 70 % 1021,3 hPa 0,0 l/m SW 16,1 km/h (3 Bft)
12.06.2009 09:00 15,0 C 59 % 1021,3 hPa 0,0 l/m W-NW 20,6 km/h (4 Bft)
12.06.2009 10:00 15,4 C 56 % 1021,0 hPa 0,0 l/m W-NW 18,8 km/h (3 Bft)
12.06.2009 11:00 16,6 C 52 % 1020,6 hPa 0,0 l/m W 20,5 km/h (4 Bft)
12.06.2009 12:00 17,4 C 50 % 1020,1 hPa 0,0 l/m W 20,0 km/h (4 Bft)
12.06.2009 13:00 18,7 C 48 % 1019,8 hPa 0,0 l/m W-SW 22,0 km/h (4 Bft)
12.06.2009 14:00 19,4 C 48 % 1019,4 hPa 0,0 l/m SW 24,0 km/h (4 Bft)
12.06.2009 15:00 19,1 C 48 % 1019,1 hPa 0,0 l/m SW 17,6 km/h (3 Bft)
12.06.2009 16:00 19,2 C 44 % 1018,9 hPa 0,0 l/m W 18,1 km/h (3 Bft)
12.06.2009 17:00 19,1 C 41 % 1018,7 hPa 0,0 l/m W-SW 21,2 km/h (4 Bft)
12.06.2009 18:00 18,8 C 44 % 1018,8 hPa 0,0 l/m W-NW 18,9 km/h (3 Bft)
12.06.2009 19:00 18,3 C 46 % 1019,1 hPa 0,0 l/m W-NW 11,3 km/h (2 Bft)
12.06.2009 20:00 17,4 C 50 % 1019,4 hPa 0,0 l/m W-NW 11,0 km/h (2 Bft)
12.06.2009 21:00 16,5 C 53 % 1019,9 hPa 0,0 l/m NW 9,8 km/h (2 Bft)
12.06.2009 22:00 15,8 C 56 % 1020,4 hPa 0,0 l/m W-NW 8,0 km/h (2 Bft)
12.06.2009 23:00 14,8 C 64 % 1020,6 hPa 0,0 l/m W-NW 2,7 km/h (1 Bft)
13.06.2009 00:00 14,1 C 66 % 1020,8 hPa 0,0 l/m W-SW 6,0 km/h (2 Bft)
13.06.2009 01:00 13,2 C 69 % 1021,0 hPa 0,0 l/m W 6,5 km/h (2 Bft)
13.06.2009 02:00 12,9 C 69 % 1020,8 hPa 0,0 l/m W 6,7 km/h (2 Bft)
13.06.2009 03:00 11,4 C 79 % 1020,4 hPa 0,0 l/m N 1,6 km/h (1 Bft)
13.06.2009 04:00 10,1 C 86 % 1020,5 hPa 0,0 l/m N 0,5 km/h (0 Bft)
13.06.2009 05:00 9,7 C 89 % 1020,6 hPa 0,0 l/m N 0,3 km/h (0 Bft)
13.06.2009 06:00 10,5 C 87 % 1020,5 hPa 0,0 l/m N 0,3 km/h (0 Bft)
13.06.2009 07:00 13,1 C 80 % 1020,4 hPa 0,0 l/m N 3,7 km/h (1 Bft)
13.06.2009 08:00 15,5 C 67 % 1020,5 hPa 0,0 l/m N 6,1 km/h (2 Bft)
13.06.2009 09:00 17,0 C 62 % 1020,6 hPa 0,0 l/m N 6,4 km/h (2 Bft)
13.06.2009 10:00 17,6 C 60 % 1020,5 hPa 0,0 l/m N-NW 7,6 km/h (2 Bft)
13.06.2009 11:00 18,5 C 58 % 1020,5 hPa 0,0 l/m W 7,1 km/h (2 Bft)
13.06.2009 12:00 19,2 C 57 % 1020,3 hPa 0,0 l/m NW 7,8 km/h (2 Bft)
13.06.2009 13:00 21,1 C 51 % 1019,8 hPa 0,0 l/m SW 14,8 km/h (3 Bft)
13.06.2009 14:00 22,0 C 47 % 1019,6 hPa 0,0 l/m W-SW 15,6 km/h (3 Bft)
13.06.2009 15:00 22,3 C 46 % 1019,1 hPa 0,0 l/m W-SW 12,9 km/h (3 Bft)
13.06.2009 16:00 22,6 C 45 % 1018,8 hPa 0,0 l/m W-SW 13,0 km/h (3 Bft)
13.06.2009 17:00 22,6 C 46 % 1018,6 hPa 0,0 l/m W-SW 11,1 km/h (2 Bft)
13.06.2009 18:00 22,5 C 45 % 1018,3 hPa 0,0 l/m W-SW 10,7 km/h (2 Bft)
13.06.2009 19:00 22,0 C 48 % 1018,0 hPa 0,0 l/m W-SW 7,3 km/h (2 Bft)
13.06.2009 20:00 20,1 C 57 % 1018,1 hPa 0,0 l/m W-SW 4,5 km/h (1 Bft)
13.06.2009 21:00 17,4 C 69 % 1018,3 hPa 0,0 l/m N-NO 3,9 km/h (1 Bft)
13.06.2009 22:00 16,2 C 73 % 1018,8 hPa 0,0 l/m NW 4,9 km/h (1 Bft)
13.06.2009 23:00 14,8 C 79 % 1019,1 hPa 0,0 l/m NW 3,6 km/h (1 Bft)
14.06.2009 00:00 13,8 C 83 % 1019,3 hPa 0,0 l/m NW 2,8 km/h (1 Bft)
14.06.2009 01:00 13,0 C 85 % 1019,4 hPa 0,0 l/m NW 2,3 km/h (1 Bft)
14.06.2009 02:00 12,3 C 87 % 1019,2 hPa 0,0 l/m NW 2,8 km/h (1 Bft)
14.06.2009 03:00 12,1 C 88 % 1019,1 hPa 0,0 l/m NW 4,3 km/h (1 Bft)
14.06.2009 04:00 11,5 C 89 % 1019,0 hPa 0,0 l/m NW 4,1 km/h (1 Bft)
14.06.2009 05:00 11,1 C 91 % 1019,0 hPa 0,0 l/m NW 3,6 km/h (1 Bft)
14.06.2009 06:00 11,8 C 89 % 1019,0 hPa 0,0 l/m NW 1,2 km/h (1 Bft)
14.06.2009 07:00 14,3 C 79 % 1019,0 hPa 0,0 l/m N-NW 2,0 km/h (1 Bft)
14.06.2009 08:00 16,9 C 70 % 1018,7 hPa 0,0 l/m S-SW 4,7 km/h (1 Bft)
14.06.2009 09:00 19,3 C 68 % 1018,5 hPa 0,0 l/m S-SW 5,5 km/h (1 Bft)
14.06.2009 10:00 21,2 C 60 % 1018,0 hPa 0,0 l/m SW 8,3 km/h (2 Bft)
14.06.2009 11:00 23,3 C 55 % 1017,6 hPa 0,0 l/m S-SW 8,9 km/h (2 Bft)
14.06.2009 12:00 25,2 C 52 % 1017,2 hPa 0,0 l/m SW 16,9 km/h (3 Bft)
14.06.2009 13:00 26,1 C 45 % 1016,9 hPa 0,0 l/m SW 19,0 km/h (3 Bft)
14.06.2009 14:00 26,2 C 45 % 1016,6 hPa 0,0 l/m W 17,8 km/h (3 Bft)
14.06.2009 15:00 27,1 C 45 % 1016,4 hPa 0,0 l/m SW 23,0 km/h (4 Bft)
14.06.2009 16:00 26,8 C 46 % 1016,1 hPa 0,0 l/m W-SW 20,8 km/h (4 Bft)
14.06.2009 17:00 25,8 C 49 % 1016,1 hPa 0,0 l/m W-SW 19,3 km/h (3 Bft)
14.06.2009 18:00 24,9 C 54 % 1016,3 hPa 0,0 l/m W-SW 11,8 km/h (2 Bft)
14.06.2009 19:00 23,8 C 54 % 1017,3 hPa 0,0 l/m NW 14,5 km/h (3 Bft)
14.06.2009 20:00 20,5 C 70 % 1017,7 hPa 0,0 l/m N-NW 17,7 km/h (3 Bft)
14.06.2009 21:00 18,9 C 79 % 1017,6 hPa 0,0 l/m N-NW 5,1 km/h (1 Bft)
14.06.2009 22:00 18,0 C 83 % 1017,7 hPa 0,0 l/m SW 9,9 km/h (2 Bft)
14.06.2009 23:00 19,2 C 73 % 1017,9 hPa 0,0 l/m W-SW 19,3 km/h (3 Bft)
Min-Datum _ 12.06.09 12.06.09 09.06.09 - - 08.06.09
_ Min-Zeit 05:50 17:10 04:40 - - 03:05
Minimum _ 6,6 C 39 % 1006,3 hPa - - 0,0 km/h (0 Bft)
Max-Datum _ 14.06.09 11.06.09 12.06.09 11.06.09 - 11.06.09
_ Max-Zeit 16:00 05:05 08:10 07:10 - 13:05
Maximum _ 27,8 C 100 % 1021,4 hPa 2,2 l/m - 57,9 km/h
W (7 Bft)
Durchschnitt _ 16,2 C 69 % 1015,0 hPa #10,6 l/m W-SW 12,2 km/h (2 Bft)